createdAt,value
2023-02-08T00:00:55.698Z,68.43
2023-02-08T00:03:22.722Z,68.08
2023-02-08T00:05:49.330Z,68.08
2023-02-08T00:08:16.299Z,67.79
2023-02-08T00:10:43.766Z,68.79
2023-02-08T00:13:11.627Z,68.34
2023-02-08T00:15:43.108Z,68.21
2023-02-08T00:18:13.027Z,67.69
2023-02-08T00:20:40.636Z,67.02
2023-02-08T00:23:07.755Z,67.15
2023-02-08T00:25:34.436Z,67.11
2023-02-08T00:28:03.846Z,66.85
2023-02-08T00:30:32.210Z,66.49
2023-02-08T00:33:01.513Z,66.55
2023-02-08T00:35:28.751Z,66.83
2023-02-08T00:37:56.131Z,66.72
2023-02-08T00:40:23.425Z,66.95
2023-02-08T00:42:49.898Z,67.30
2023-02-08T00:45:16.344Z,67.42
2023-02-08T00:47:42.838Z,67.18
2023-02-08T00:50:10.180Z,66.83
2023-02-08T00:52:38.263Z,67.16
2023-02-08T00:55:05.471Z,67.11
2023-02-08T00:57:32.895Z,67.25
2023-02-08T00:59:59.517Z,67.25
2023-02-08T01:02:27.705Z,67.39
2023-02-08T01:04:54.706Z,67.68
2023-02-08T01:07:21.450Z,67.42
2023-02-08T01:09:47.848Z,67.43
2023-02-08T01:12:14.512Z,67.44
2023-02-08T01:14:41.798Z,68.26
2023-02-08T01:17:08.435Z,68.13
2023-02-08T01:19:36.271Z,68.72
2023-02-08T01:22:02.864Z,68.16
2023-02-08T01:24:29.350Z,68.98
2023-02-08T01:26:56.346Z,68.64
2023-02-08T01:29:23.171Z,68.59
2023-02-08T01:31:50.427Z,68.58
2023-02-08T01:34:18.896Z,68.62
2023-02-08T01:36:45.301Z,69.32
2023-02-08T01:39:12.173Z,69.63
2023-02-08T01:41:43.710Z,69.18
2023-02-08T01:44:17.678Z,69.20
2023-02-08T01:46:46.599Z,69.70
2023-02-08T01:49:24.066Z,70.18
2023-02-08T01:51:54.818Z,69.01
2023-02-08T01:54:23.312Z,69.38
2023-02-08T01:56:50.384Z,70.31
2023-02-08T01:59:23.328Z,69.82
2023-02-08T02:01:51.801Z,69.46
2023-02-08T02:04:20.747Z,69.64
2023-02-08T02:06:49.198Z,69.22
2023-02-08T02:09:30.732Z,68.88
2023-02-08T02:11:57.792Z,68.86
2023-02-08T02:14:25.680Z,68.93
2023-02-08T02:16:52.341Z,69.09
2023-02-08T02:19:43.267Z,68.98
2023-02-08T02:22:40.079Z,69.04
2023-02-08T02:25:25.079Z,69.62
2023-02-08T02:28:06.767Z,69.43
2023-02-08T02:30:46.271Z,69.50
2023-02-08T02:33:25.043Z,69.42
2023-02-08T02:36:22.830Z,68.84
2023-02-08T02:38:49.210Z,69.20
2023-02-08T02:41:43.132Z,69.49
2023-02-08T02:44:30.262Z,69.24
2023-02-08T02:47:04.892Z,69.29
2023-02-08T02:49:53.174Z,69.04
2023-02-08T02:52:25.102Z,69.35
2023-02-08T02:54:53.077Z,69.12
2023-02-08T02:57:26.499Z,69.30
2023-02-08T02:59:54.962Z,69.90
2023-02-08T03:02:22.298Z,69.20
2023-02-08T03:04:50.824Z,68.97
2023-02-08T03:07:35.291Z,69.07
2023-02-08T03:10:13.366Z,69.81
2023-02-08T03:13:01.112Z,69.62
2023-02-08T03:15:31.432Z,69.67
2023-02-08T03:18:05.309Z,69.62
2023-02-08T03:20:34.957Z,70.09
2023-02-08T03:23:13.593Z,70.94
2023-02-08T03:25:49.774Z,70.18
2023-02-08T03:28:28.696Z,69.59
2023-02-08T03:30:58.489Z,69.24
2023-02-08T03:33:28.964Z,69.34
2023-02-08T03:36:00.679Z,69.93
2023-02-08T03:38:34.009Z,70.12
2023-02-08T03:41:07.315Z,70.46
2023-02-08T03:43:39.374Z,70.16
2023-02-08T03:46:09.310Z,69.96
2023-02-08T03:48:38.980Z,70.14
2023-02-08T03:51:07.111Z,70.39
2023-02-08T03:53:38.398Z,70.29
2023-02-08T03:56:09.532Z,70.37
2023-02-08T03:58:40.929Z,69.85
2023-02-08T04:01:13.389Z,69.70
2023-02-08T04:03:40.925Z,69.23
2023-02-08T04:06:07.836Z,68.85
2023-02-08T04:08:34.379Z,69.56
2023-02-08T04:11:00.950Z,69.74
2023-02-08T04:13:27.465Z,70.11
2023-02-08T04:15:54.070Z,69.72
2023-02-08T04:18:24.093Z,70.20
2023-02-08T04:20:51.129Z,70.43
2023-02-08T04:23:17.817Z,70.04
2023-02-08T04:25:45.574Z,69.56
2023-02-08T04:28:12.317Z,69.98
2023-02-08T04:30:39.626Z,69.88
2023-02-08T04:33:07.893Z,70.26
2023-02-08T04:35:34.530Z,69.94
2023-02-08T04:38:02.450Z,69.54
2023-02-08T04:40:28.958Z,69.11
2023-02-08T04:42:55.582Z,69.11
2023-02-08T04:45:22.503Z,69.54
2023-02-08T04:47:49.061Z,69.28
2023-02-08T04:50:17.837Z,69.26
2023-02-08T04:52:44.551Z,69.40
2023-02-08T04:55:11.952Z,69.51
2023-02-08T04:57:39.993Z,69.37
2023-02-08T05:00:08.851Z,69.59
2023-02-08T05:02:35.900Z,69.57
2023-02-08T05:05:03.448Z,69.78
2023-02-08T05:07:30.546Z,69.55
2023-02-08T05:09:57.207Z,69.79
2023-02-08T05:12:24.657Z,69.74
2023-02-08T05:14:51.977Z,69.58
2023-02-08T05:17:18.376Z,69.31
2023-02-08T05:19:46.573Z,69.21
2023-02-08T05:22:14.998Z,69.23
2023-02-08T05:24:41.904Z,69.98
2023-02-08T05:27:12.576Z,69.89
2023-02-08T05:29:39.807Z,70.02
2023-02-08T05:32:07.461Z,69.95
2023-02-08T05:34:36.933Z,69.73
2023-02-08T05:37:03.699Z,70.50
2023-02-08T05:39:32.406Z,70.32
2023-02-08T05:42:01.864Z,70.16
2023-02-08T05:44:31.004Z,70.44
2023-02-08T05:46:58.195Z,71.05
2023-02-08T05:49:25.358Z,70.60
2023-02-08T05:51:53.400Z,70.26
2023-02-08T05:54:20.032Z,70.07
2023-02-08T05:56:51.366Z,69.95
2023-02-08T05:59:19.056Z,70.34
2023-02-08T06:01:45.673Z,70.21
2023-02-08T06:04:14.132Z,69.70
2023-02-08T06:06:42.975Z,70.18
2023-02-08T06:09:11.425Z,70.11
2023-02-08T06:11:38.364Z,69.92
2023-02-08T06:14:05.455Z,70.22
2023-02-08T06:16:32.079Z,69.56
2023-02-08T06:19:08.101Z,69.46
2023-02-08T06:21:35.776Z,69.15
2023-02-08T06:24:04.161Z,69.33
2023-02-08T06:26:34.181Z,69.24
2023-02-08T06:29:02.353Z,69.51
2023-02-08T06:31:31.368Z,69.61
2023-02-08T06:33:58.478Z,69.79
2023-02-08T06:36:25.000Z,69.73
2023-02-08T06:38:51.518Z,69.71
2023-02-08T06:41:18.811Z,69.39
2023-02-08T06:43:45.444Z,69.34
2023-02-08T06:46:12.271Z,69.56
2023-02-08T06:48:39.794Z,69.31
2023-02-08T06:51:06.697Z,69.79
2023-02-08T06:53:34.579Z,69.78
2023-02-08T06:56:01.820Z,69.34
2023-02-08T06:58:28.424Z,69.54
2023-02-08T07:00:58.950Z,69.14
2023-02-08T07:03:25.454Z,68.98
2023-02-08T07:06:05.549Z,69.36
2023-02-08T07:08:34.963Z,68.96
2023-02-08T07:11:06.608Z,68.70
2023-02-08T07:13:33.023Z,69.02
2023-02-08T07:15:59.369Z,69.17
2023-02-08T07:18:26.187Z,68.74
2023-02-08T07:20:52.746Z,69.00
2023-02-08T07:23:20.609Z,69.54
2023-02-08T07:25:55.964Z,68.92
2023-02-08T07:28:22.605Z,68.94
2023-02-08T07:30:57.312Z,69.11
2023-02-08T07:33:24.373Z,68.89
2023-02-08T07:35:54.445Z,68.87
2023-02-08T07:38:24.388Z,68.72
2023-02-08T07:40:50.993Z,68.50
2023-02-08T07:43:17.891Z,68.93
2023-02-08T07:45:46.654Z,68.84
2023-02-08T07:48:13.356Z,68.48
2023-02-08T07:50:40.779Z,69.08
2023-02-08T07:53:12.515Z,69.51
2023-02-08T07:55:41.244Z,68.77
2023-02-08T07:58:10.838Z,68.65
2023-02-08T08:00:41.172Z,69.19
2023-02-08T08:03:09.617Z,68.96
2023-02-08T08:05:36.045Z,68.95
2023-02-08T08:08:02.534Z,68.09
2023-02-08T08:10:30.483Z,68.13
2023-02-08T08:12:57.404Z,68.73
2023-02-08T08:15:23.908Z,68.99
2023-02-08T08:17:50.401Z,69.41
2023-02-08T08:20:17.236Z,68.53
2023-02-08T08:22:43.805Z,68.80
2023-02-08T08:25:10.480Z,68.90
2023-02-08T08:27:38.241Z,68.90
2023-02-08T08:30:12.622Z,69.32
2023-02-08T08:32:40.339Z,68.85
2023-02-08T08:35:07.435Z,67.64
2023-02-08T08:37:36.779Z,67.85
2023-02-08T08:40:04.785Z,68.04
2023-02-08T08:42:31.325Z,68.01
2023-02-08T08:44:59.193Z,67.31
2023-02-08T08:47:25.680Z,66.54
2023-02-08T08:49:53.028Z,66.09
2023-02-08T08:52:20.166Z,66.46
2023-02-08T08:54:47.733Z,66.67
2023-02-08T08:57:14.536Z,66.21
2023-02-08T08:59:41.201Z,66.40
2023-02-08T09:02:07.604Z,65.07
2023-02-08T09:04:33.998Z,63.72
2023-02-08T09:07:01.284Z,63.10
2023-02-08T09:09:28.571Z,61.66
2023-02-08T09:11:56.161Z,61.39
2023-02-08T09:14:22.897Z,59.92
2023-02-08T09:16:49.708Z,58.24
2023-02-08T09:19:16.306Z,57.21
2023-02-08T09:21:43.240Z,57.17
2023-02-08T09:24:10.666Z,56.91
2023-02-08T09:26:38.023Z,56.00
2023-02-08T09:29:05.684Z,56.45
2023-02-08T09:31:34.342Z,55.89
2023-02-08T09:34:02.207Z,54.60
2023-02-08T09:36:31.984Z,54.16
2023-02-08T09:39:04.609Z,54.04
2023-02-08T09:41:37.043Z,53.38
2023-02-08T09:44:12.398Z,52.62
2023-02-08T09:46:45.914Z,52.39
2023-02-08T09:49:25.917Z,52.28
2023-02-08T09:52:13.420Z,51.12
2023-02-08T09:54:43.508Z,50.98
2023-02-08T09:57:17.035Z,50.95
2023-02-08T09:59:54.932Z,50.47
2023-02-08T10:02:33.938Z,50.40
2023-02-08T10:05:05.312Z,50.28
2023-02-08T10:07:32.576Z,50.24
2023-02-08T10:10:01.083Z,50.92
2023-02-08T10:12:47.466Z,50.39
2023-02-08T10:15:20.236Z,50.65
2023-02-08T10:18:00.224Z,49.60
2023-02-08T10:20:46.248Z,48.95
2023-02-08T10:23:23.897Z,48.91
2023-02-08T10:25:53.527Z,47.66
2023-02-08T10:28:41.851Z,48.28
2023-02-08T10:31:23.573Z,48.90
2023-02-08T10:33:58.991Z,49.36
2023-02-08T10:39:15.652Z,49.05
2023-02-08T10:41:43.926Z,49.14
2023-02-08T10:44:23.016Z,48.15
2023-02-08T10:47:12.692Z,47.70
2023-02-08T10:49:53.704Z,47.19
2023-02-08T10:52:21.798Z,47.76
2023-02-08T10:54:52.327Z,47.22
2023-02-08T10:57:24.963Z,46.86
2023-02-08T10:59:54.119Z,46.10
2023-02-08T11:02:27.508Z,45.87
2023-02-08T11:05:01.753Z,46.59
2023-02-08T11:07:29.624Z,46.89
2023-02-08T11:10:13.430Z,46.13
2023-02-08T11:12:41.116Z,46.12
2023-02-08T11:15:21.189Z,46.00
2023-02-08T11:17:53.578Z,46.19
2023-02-08T11:20:24.153Z,45.37
2023-02-08T11:22:51.927Z,45.54
2023-02-08T11:25:36.045Z,45.31
2023-02-08T11:28:03.221Z,43.95
2023-02-08T11:30:29.732Z,43.65
2023-02-08T11:33:14.810Z,43.29
2023-02-08T11:35:42.468Z,42.84
2023-02-08T11:38:18.045Z,42.88
2023-02-08T11:40:44.567Z,42.39
2023-02-08T11:43:40.930Z,42.43
2023-02-08T11:46:08.684Z,42.45
2023-02-08T11:48:42.247Z,41.92
2023-02-08T11:51:09.578Z,41.13
2023-02-08T11:53:38.346Z,41.08
2023-02-08T11:56:25.112Z,40.68
2023-02-08T11:59:13.018Z,41.34
2023-02-08T12:01:41.411Z,41.07
2023-02-08T12:04:11.313Z,40.99
2023-02-08T12:06:47.555Z,40.84
2023-02-08T12:09:30.107Z,40.43
2023-02-08T12:12:15.671Z,40.04
2023-02-08T12:14:48.648Z,40.52
2023-02-08T12:17:24.328Z,40.88
2023-02-08T12:19:58.885Z,39.80
2023-02-08T12:22:27.587Z,39.54
2023-02-08T12:25:00.753Z,39.90
2023-02-08T12:27:38.036Z,39.67
2023-02-08T12:30:25.798Z,39.16
2023-02-08T12:32:57.713Z,39.88
2023-02-08T12:36:01.445Z,39.44
2023-02-08T12:39:07.836Z,38.59
2023-02-08T12:41:58.880Z,38.13
2023-02-08T12:44:48.725Z,39.16
2023-02-08T12:47:35.094Z,39.80
2023-02-08T12:50:27.134Z,39.97
2023-02-08T12:53:09.456Z,39.56
2023-02-08T12:55:39.352Z,39.44
2023-02-08T12:58:26.526Z,40.05
2023-02-08T13:01:05.063Z,40.29
2023-02-08T13:03:50.620Z,39.74
2023-02-08T13:06:24.524Z,40.04
2023-02-08T13:09:06.000Z,40.23
2023-02-08T13:11:42.207Z,39.64
2023-02-08T13:14:27.712Z,39.67
2023-02-08T13:16:56.026Z,40.43
2023-02-08T13:19:35.173Z,40.44
2023-02-08T13:22:05.326Z,39.79
2023-02-08T13:24:37.436Z,39.82
2023-02-08T13:27:07.457Z,39.97
2023-02-08T13:29:34.629Z,40.25
2023-02-08T13:32:09.640Z,40.29
2023-02-08T13:34:39.204Z,40.16
2023-02-08T13:37:26.725Z,40.74
2023-02-08T13:40:05.000Z,40.47
2023-02-08T13:42:42.609Z,40.04
2023-02-08T13:45:12.045Z,41.36
2023-02-08T13:47:44.274Z,40.92
2023-02-08T13:50:32.706Z,41.16
2023-02-08T13:53:05.076Z,41.15
2023-02-08T13:55:36.671Z,40.82
2023-02-08T13:58:04.771Z,40.71
2023-02-08T14:00:31.426Z,41.13
2023-02-08T14:03:02.489Z,40.94
2023-02-08T14:05:44.860Z,41.24
2023-02-08T14:08:30.181Z,41.29
2023-02-08T14:11:06.390Z,41.44
2023-02-08T14:13:35.757Z,41.96
2023-02-08T14:16:21.340Z,42.30
2023-02-08T14:18:52.313Z,42.55
2023-02-08T14:21:28.912Z,41.79
2023-02-08T14:24:07.875Z,41.83
2023-02-08T14:26:36.589Z,41.92
2023-02-08T14:29:04.725Z,42.18
2023-02-08T14:31:40.821Z,42.54
2023-02-08T14:34:20.681Z,42.18
2023-02-08T14:36:47.904Z,42.70
2023-02-08T14:39:29.467Z,42.84
2023-02-08T14:42:05.755Z,42.24
2023-02-08T14:44:38.717Z,41.93
2023-02-08T14:47:12.258Z,43.04
2023-02-08T14:49:42.574Z,43.94
2023-02-08T14:52:16.355Z,44.27
2023-02-08T14:55:03.220Z,44.99
2023-02-08T14:57:33.704Z,45.77
2023-02-08T15:00:02.610Z,46.09
2023-02-08T15:02:32.106Z,46.13
2023-02-08T15:05:00.125Z,46.83
2023-02-08T15:07:49.628Z,46.78
2023-02-08T15:10:19.382Z,46.45
2023-02-08T15:12:54.299Z,46.69
2023-02-08T15:15:33.921Z,46.41
2023-02-08T15:18:02.829Z,46.11
2023-02-08T15:20:35.988Z,45.54
2023-02-08T15:23:22.357Z,45.67
2023-02-08T15:26:20.520Z,45.27
2023-02-08T15:28:47.391Z,45.28
2023-02-08T15:31:15.869Z,45.14
2023-02-08T15:33:43.739Z,44.95
2023-02-08T15:36:28.679Z,44.71
2023-02-08T15:38:56.659Z,44.55
2023-02-08T15:41:34.334Z,44.60
2023-02-08T15:44:02.300Z,44.88
2023-02-08T15:46:29.980Z,44.31
2023-02-08T15:48:58.053Z,44.76
2023-02-08T15:51:27.393Z,44.69
2023-02-08T15:53:57.421Z,44.53
2023-02-08T15:56:36.399Z,44.49
2023-02-08T15:59:06.950Z,44.54
2023-02-08T16:01:34.667Z,44.58
2023-02-08T16:04:06.155Z,44.92
2023-02-08T16:06:38.098Z,45.02
2023-02-08T16:09:04.741Z,45.53
2023-02-08T16:11:35.672Z,46.28
2023-02-08T16:14:04.498Z,47.42
2023-02-08T16:16:47.440Z,48.21
2023-02-08T16:19:24.503Z,48.45
2023-02-08T16:21:52.732Z,48.73
2023-02-08T16:24:21.677Z,49.00
2023-02-08T16:27:05.370Z,49.64
2023-02-08T16:29:37.686Z,50.25
2023-02-08T16:32:13.505Z,51.28
2023-02-08T16:34:41.776Z,51.46
2023-02-08T16:37:21.580Z,52.18
2023-02-08T16:39:53.408Z,52.88
2023-02-08T16:42:43.405Z,53.36
2023-02-08T16:45:29.066Z,54.12
2023-02-08T16:48:13.417Z,54.04
2023-02-08T16:50:49.016Z,54.26
2023-02-08T16:53:16.297Z,54.67
2023-02-08T16:55:45.187Z,55.23
2023-02-08T16:58:17.218Z,56.00
2023-02-08T17:00:45.468Z,55.20
2023-02-08T17:03:14.245Z,55.25
2023-02-08T17:05:41.796Z,55.53
2023-02-08T17:08:15.696Z,55.65
2023-02-08T17:10:43.900Z,55.97
2023-02-08T17:13:20.283Z,56.05
2023-02-08T17:15:48.839Z,55.82
2023-02-08T17:18:15.863Z,55.68
2023-02-08T17:20:43.564Z,56.00
2023-02-08T17:23:10.686Z,56.42
2023-02-08T17:25:39.210Z,56.23
2023-02-08T17:28:08.246Z,56.38
2023-02-08T17:30:41.289Z,56.84
2023-02-08T17:33:09.032Z,57.18
2023-02-08T17:35:37.994Z,57.31
2023-02-08T17:38:05.259Z,57.38
2023-02-08T17:40:33.872Z,57.08
2023-02-08T17:43:00.618Z,56.76
2023-02-08T17:45:28.279Z,57.23
2023-02-08T17:47:57.068Z,56.93
2023-02-08T17:50:24.736Z,57.66
2023-02-08T17:52:52.522Z,57.59
2023-02-08T17:55:21.918Z,58.44
2023-02-08T17:57:49.684Z,58.36
2023-02-08T18:00:21.221Z,58.57
2023-02-08T18:02:50.973Z,58.18
2023-02-08T18:05:22.952Z,58.54
2023-02-08T18:07:50.537Z,59.63
2023-02-08T18:10:18.390Z,60.91
2023-02-08T18:12:45.290Z,61.53
2023-02-08T18:15:16.756Z,61.78
2023-02-08T18:17:46.388Z,62.22
2023-02-08T18:20:16.062Z,61.36
2023-02-08T18:22:43.656Z,62.07
2023-02-08T18:25:12.370Z,62.06
2023-02-08T18:27:40.692Z,62.05
2023-02-08T18:30:09.854Z,61.95
2023-02-08T18:32:37.589Z,61.69
2023-02-08T18:35:07.989Z,61.86
2023-02-08T18:37:35.342Z,62.67
2023-02-08T18:40:05.133Z,62.61
2023-02-08T18:42:36.267Z,63.66
2023-02-08T18:45:04.150Z,63.34
2023-02-08T18:47:32.941Z,64.01
2023-02-08T18:50:02.260Z,64.47
2023-02-08T18:52:31.459Z,64.46
2023-02-08T18:54:59.403Z,63.69
2023-02-08T18:57:26.546Z,64.07
2023-02-08T18:59:54.392Z,63.40
2023-02-08T19:02:24.477Z,63.20
2023-02-08T19:04:58.782Z,63.13
2023-02-08T19:07:25.754Z,62.94
2023-02-08T19:09:52.843Z,63.40
2023-02-08T19:12:21.443Z,63.28
2023-02-08T19:14:53.870Z,63.77
2023-02-08T19:17:21.015Z,63.72
2023-02-08T19:19:48.376Z,61.99
2023-02-08T19:22:17.437Z,62.96
2023-02-08T19:24:45.348Z,63.07
2023-02-08T19:27:25.166Z,63.08
2023-02-08T19:29:56.862Z,62.89
2023-02-08T19:32:24.143Z,63.31
2023-02-08T19:34:57.686Z,62.58
2023-02-08T19:37:27.211Z,61.80
2023-02-08T19:39:53.819Z,61.85
2023-02-08T19:42:21.536Z,62.80
2023-02-08T19:44:48.779Z,63.04
2023-02-08T19:47:18.491Z,63.26
2023-02-08T19:49:45.570Z,62.00
2023-02-08T19:52:13.378Z,61.68
2023-02-08T19:54:41.059Z,61.64
2023-02-08T19:57:11.873Z,61.11
2023-02-08T19:59:39.062Z,62.36
2023-02-08T20:02:07.460Z,62.92
2023-02-08T20:04:34.538Z,63.87
2023-02-08T20:07:01.285Z,62.85
2023-02-08T20:09:48.837Z,62.29
2023-02-08T20:12:15.377Z,61.49
2023-02-08T20:14:43.362Z,62.28
2023-02-08T20:17:10.567Z,61.95
2023-02-08T20:19:38.412Z,61.56
2023-02-08T20:22:06.718Z,60.78
2023-02-08T20:24:34.280Z,60.95
2023-02-08T20:27:01.614Z,61.22
2023-02-08T20:29:29.214Z,60.71
2023-02-08T20:31:57.730Z,60.15
2023-02-08T20:34:24.965Z,60.61
2023-02-08T20:37:06.207Z,60.34
2023-02-08T20:39:35.230Z,61.50
2023-02-08T20:42:02.946Z,61.12
2023-02-08T20:44:31.895Z,61.02
2023-02-08T20:46:59.779Z,60.40
2023-02-08T20:49:27.163Z,61.22
2023-02-08T20:51:55.068Z,60.72
2023-02-08T20:54:25.579Z,60.53
2023-02-08T20:56:53.377Z,60.47
2023-02-08T20:59:20.287Z,60.21
2023-02-08T21:01:52.640Z,60.44
2023-02-08T21:04:23.665Z,60.07
2023-02-08T21:06:51.633Z,59.82
2023-02-08T21:09:19.103Z,59.23
2023-02-08T21:11:47.867Z,59.99
2023-02-08T21:14:19.293Z,59.67
2023-02-08T21:16:49.490Z,59.22
2023-02-08T21:19:17.292Z,59.43
2023-02-08T21:21:46.261Z,59.24
2023-02-08T21:24:15.046Z,58.86
2023-02-08T21:26:42.701Z,59.65
2023-02-08T21:29:10.014Z,59.48
2023-02-08T21:31:38.030Z,59.32
2023-02-08T21:34:05.890Z,59.06
2023-02-08T21:36:33.188Z,58.74
2023-02-08T21:39:00.157Z,59.96
2023-02-08T21:41:28.547Z,59.61
2023-02-08T21:43:57.597Z,59.74
2023-02-08T21:46:25.214Z,59.67
2023-02-08T21:49:11.266Z,59.68
2023-02-08T21:51:56.209Z,59.13
2023-02-08T21:54:43.347Z,59.81
2023-02-08T21:57:38.086Z,59.81
2023-02-08T22:00:08.956Z,60.22
2023-02-08T22:02:36.545Z,59.88
2023-02-08T22:05:04.972Z,59.67
2023-02-08T22:07:42.747Z,60.16
2023-02-08T22:10:13.964Z,60.60
2023-02-08T22:12:42.273Z,61.04
2023-02-08T22:15:12.961Z,60.23
2023-02-08T22:17:40.306Z,60.19
2023-02-08T22:20:08.339Z,60.40
2023-02-08T22:22:38.764Z,60.42
2023-02-08T22:25:05.587Z,60.49
2023-02-08T22:27:33.042Z,59.96
2023-02-08T22:30:00.966Z,59.96
2023-02-08T22:32:29.807Z,61.27
2023-02-08T22:34:57.433Z,61.23
2023-02-08T22:37:24.607Z,60.83
2023-02-08T22:39:51.431Z,60.62
2023-02-08T22:42:18.101Z,60.91
2023-02-08T22:44:45.155Z,61.11
2023-02-08T22:47:13.594Z,61.68
2023-02-08T22:49:40.159Z,61.33
2023-02-08T22:52:08.834Z,61.11
2023-02-08T22:54:37.282Z,60.86
2023-02-08T22:57:06.290Z,61.10
2023-02-08T22:59:34.589Z,61.07
2023-02-08T23:02:03.177Z,61.38
2023-02-08T23:04:30.288Z,61.57
2023-02-08T23:06:57.465Z,61.50
2023-02-08T23:09:24.389Z,61.92
2023-02-08T23:11:51.072Z,61.36
2023-02-08T23:14:18.510Z,61.64
2023-02-08T23:16:45.555Z,61.73
2023-02-08T23:19:16.136Z,62.00
2023-02-08T23:21:43.169Z,61.89
2023-02-08T23:24:11.575Z,62.75
2023-02-08T23:26:38.681Z,62.94
2023-02-08T23:29:05.208Z,63.68
2023-02-08T23:31:33.449Z,63.06
2023-02-08T23:34:02.944Z,63.05
2023-02-08T23:36:29.837Z,63.34
2023-02-08T23:38:56.417Z,63.19
2023-02-08T23:41:24.117Z,63.66
2023-02-08T23:43:53.874Z,63.27
2023-02-08T23:46:33.413Z,64.15
2023-02-08T23:49:00.146Z,64.17
2023-02-08T23:51:29.837Z,64.00
2023-02-08T23:53:56.751Z,63.67
2023-02-08T23:56:27.300Z,63.76
2023-02-08T23:58:55.229Z,64.75
